Hauptseite
METAR-TAF:

METAR-TAF

Flughäfen :

Flugplatz Shoreham

Brighton, England

Breite: 50-50N, Länge: 000-17W, Höhe: 2 m

Beobachtung

Neuester Wetterbericht von vor 9 Stunden und 54 Minuten, um 19:50 UTC
Wind 5 kt aus Nord/Nordwest
Temperatur 6°C
Luftfeuchtigkeit 93%
Luftdruck 1008 hPa
Sichtweite 10 km oder mehr
Durchbrochene Bewölkung in der Höhe von 4500 ft

METAR: EGKA 161950Z 34005KT 9999 BKN045 06/05 Q1008

Zeit: 05:44 (05:44 UTC)

Prognose

Neuester Wetterbericht von vor 12 Stunden und 46 Minuten, um 16:58 UTC
Gültige Prognose vom 16 um 18 UTC bis 16 um 20 UTC
Wind 5 kt aus Nord
Sichtweite 10 km oder mehr
Durchbrochene Bewölkung in der Höhe von 3500 ft

TAF: EGKA 161658Z 1618/1620 01005KT 9999 BKN035

Wetterbeobachtungen und Prognosen von mehr als 4000 Flughäfen (METAR und TAF Bericht).

Die verfügbaren Stationen werden durch gelbe und rote Markierungen auf der Karte dargestellt.

Führen Sie die Maus auf sie, um den Namen der Station zu sehen.

Darauf klicken, um die Beobachtung von Wetterbeobachtungen und Prognosen zu sehen.

Um die Karte zu ändern : klicken Sie auf den grünen Tasten mit einem schwarzen Kreuz Zum Vergrößern, auf den grünen Button mit einem Gedankenstrich zu verkleinern, oder auf die grünen Pfeile für benachbarte Karten.


METAR-TAF: